sensor_id;sensor_type;location;lat;lon;timestamp;P1;durP1;ratioP1;P2;durP2;ratioP2
70707;SDS011;58277;47.316;18.908;2024-03-23T00:52:08;56.55;;;24.40;;
70707;SDS011;58277;47.316;18.908;2024-03-23T00:54:30;52.85;;;22.55;;
70707;SDS011;58277;47.316;18.908;2024-03-23T00:56:51;52.08;;;23.50;;
70707;SDS011;58277;47.316;18.908;2024-03-23T00:59:14;41.13;;;18.67;;
70707;SDS011;58277;47.316;18.908;2024-03-23T01:01:35;42.05;;;17.83;;
70707;SDS011;58277;47.316;18.908;2024-03-23T01:03:57;41.88;;;18.63;;
70707;SDS011;58277;47.316;18.908;2024-03-23T01:06:19;38.90;;;17.17;;
70707;SDS011;58277;47.316;18.908;2024-03-23T01:08:41;39.13;;;17.63;;
70707;SDS011;58277;47.316;18.908;2024-03-23T01:11:03;37.70;;;17.33;;
70707;SDS011;58277;47.316;18.908;2024-03-23T01:13:25;40.97;;;17.80;;
70707;SDS011;58277;47.316;18.908;2024-03-23T01:15:48;45.10;;;18.67;;
70707;SDS011;58277;47.316;18.908;2024-03-23T01:18:11;48.50;;;19.95;;
70707;SDS011;58277;47.316;18.908;2024-03-23T01:20:33;44.92;;;19.90;;
70707;SDS011;58277;47.316;18.908;2024-03-23T01:22:54;48.27;;;20.40;;
70707;SDS011;58277;47.316;18.908;2024-03-23T01:25:16;50.85;;;21.88;;
70707;SDS011;58277;47.316;18.908;2024-03-23T01:27:37;49.03;;;22.58;;
70707;SDS011;58277;47.316;18.908;2024-03-23T01:29:59;51.45;;;23.45;;
70707;SDS011;58277;47.316;18.908;2024-03-23T01:32:21;51.20;;;21.80;;
70707;SDS011;58277;47.316;18.908;2024-03-23T01:34:43;51.83;;;23.53;;
70707;SDS011;58277;47.316;18.908;2024-03-23T01:37:04;60.70;;;24.33;;
70707;SDS011;58277;47.316;18.908;2024-03-23T01:39:26;63.92;;;24.92;;
70707;SDS011;58277;47.316;18.908;2024-03-23T01:41:48;54.80;;;23.50;;
70707;SDS011;58277;47.316;18.908;2024-03-23T01:44:10;53.50;;;22.27;;
70707;SDS011;58277;47.316;18.908;2024-03-23T01:46:32;51.67;;;22.37;;
70707;SDS011;58277;47.316;18.908;2024-03-23T01:48:54;53.35;;;23.10;;
70707;SDS011;58277;47.316;18.908;2024-03-23T01:51:15;56.40;;;24.20;;
70707;SDS011;58277;47.316;18.908;2024-03-23T01:53:37;52.13;;;22.83;;
70707;SDS011;58277;47.316;18.908;2024-03-23T01:55:59;51.97;;;22.25;;
70707;SDS011;58277;47.316;18.908;2024-03-23T01:58:21;52.00;;;21.57;;
70707;SDS011;58277;47.316;18.908;2024-03-23T02:00:43;51.25;;;21.25;;
70707;SDS011;58277;47.316;18.908;2024-03-23T02:03:21;51.40;;;22.98;;
70707;SDS011;58277;47.316;18.908;2024-03-23T02:05:52;49.95;;;21.63;;
70707;SDS011;58277;47.316;18.908;2024-03-23T02:08:15;54.30;;;23.25;;
70707;SDS011;58277;47.316;18.908;2024-03-23T02:10:39;52.40;;;22.30;;
70707;SDS011;58277;47.316;18.908;2024-03-23T02:13:00;50.65;;;22.10;;
70707;SDS011;58277;47.316;18.908;2024-03-23T02:15:22;51.50;;;23.38;;
70707;SDS011;58277;47.316;18.908;2024-03-23T02:17:44;49.72;;;22.13;;
70707;SDS011;58277;47.316;18.908;2024-03-23T02:20:05;49.50;;;22.10;;
70707;SDS011;58277;47.316;18.908;2024-03-23T02:22:35;55.87;;;23.27;;
70707;SDS011;58277;47.316;18.908;2024-03-23T02:25:00;49.83;;;22.08;;
70707;SDS011;58277;47.316;18.908;2024-03-23T02:27:24;54.60;;;23.85;;
70707;SDS011;58277;47.316;18.908;2024-03-23T02:29:46;47.78;;;21.70;;
70707;SDS011;58277;47.316;18.908;2024-03-23T02:32:07;50.75;;;22.55;;
70707;SDS011;58277;47.316;18.908;2024-03-23T02:34:30;52.83;;;22.83;;
70707;SDS011;58277;47.316;18.908;2024-03-23T02:36:52;51.17;;;22.75;;
70707;SDS011;58277;47.316;18.908;2024-03-23T02:39:13;53.65;;;23.13;;
70707;SDS011;58277;47.316;18.908;2024-03-23T02:41:36;53.95;;;22.80;;
70707;SDS011;58277;47.316;18.908;2024-03-23T02:43:58;51.67;;;23.00;;
70707;SDS011;58277;47.316;18.908;2024-03-23T02:46:19;53.37;;;23.13;;
70707;SDS011;58277;47.316;18.908;2024-03-23T02:48:41;52.30;;;23.42;;
70707;SDS011;58277;47.316;18.908;2024-03-23T02:51:03;50.30;;;24.02;;
70707;SDS011;58277;47.316;18.908;2024-03-23T02:53:25;51.22;;;22.98;;
70707;SDS011;58277;47.316;18.908;2024-03-23T02:55:47;51.63;;;22.77;;
70707;SDS011;58277;47.316;18.908;2024-03-23T02:58:09;53.37;;;22.90;;
70707;SDS011;58277;47.316;18.908;2024-03-23T03:00:30;52.13;;;22.85;;
70707;SDS011;58277;47.316;18.908;2024-03-23T03:02:52;58.58;;;24.27;;
70707;SDS011;58277;47.316;18.908;2024-03-23T03:05:14;50.70;;;22.83;;
70707;SDS011;58277;47.316;18.908;2024-03-23T03:07:35;56.92;;;24.08;;
70707;SDS011;58277;47.316;18.908;2024-03-23T03:09:59;49.87;;;22.60;;
70707;SDS011;58277;47.316;18.908;2024-03-23T03:12:21;53.53;;;23.55;;
70707;SDS011;58277;47.316;18.908;2024-03-23T03:14:43;56.88;;;24.42;;
70707;SDS011;58277;47.316;18.908;2024-03-23T03:17:04;53.80;;;23.92;;
70707;SDS011;58277;47.316;18.908;2024-03-23T03:19:26;56.58;;;23.88;;
70707;SDS011;58277;47.316;18.908;2024-03-23T03:21:48;54.70;;;23.57;;
70707;SDS011;58277;47.316;18.908;2024-03-23T03:24:10;57.65;;;25.80;;
70707;SDS011;58277;47.316;18.908;2024-03-23T03:26:33;56.58;;;25.30;;
70707;SDS011;58277;47.316;18.908;2024-03-23T03:28:55;53.50;;;23.85;;
70707;SDS011;58277;47.316;18.908;2024-03-23T03:31:20;57.22;;;26.52;;
70707;SDS011;58277;47.316;18.908;2024-03-23T03:33:42;58.87;;;26.23;;
70707;SDS011;58277;47.316;18.908;2024-03-23T03:36:04;59.35;;;26.15;;
70707;SDS011;58277;47.316;18.908;2024-03-23T03:38:26;58.00;;;25.35;;
70707;SDS011;58277;47.316;18.908;2024-03-23T03:40:48;59.00;;;24.85;;
70707;SDS011;58277;47.316;18.908;2024-03-23T03:43:09;61.58;;;26.52;;
70707;SDS011;58277;47.316;18.908;2024-03-23T03:45:31;56.03;;;25.67;;
70707;SDS011;58277;47.316;18.908;2024-03-23T03:47:53;64.38;;;27.27;;
70707;SDS011;58277;47.316;18.908;2024-03-23T03:50:15;57.55;;;26.60;;
70707;SDS011;58277;47.316;18.908;2024-03-23T03:52:36;53.53;;;24.38;;
70707;SDS011;58277;47.316;18.908;2024-03-23T03:55:01;59.55;;;26.45;;
70707;SDS011;58277;47.316;18.908;2024-03-23T03:57:23;63.17;;;26.90;;
70707;SDS011;58277;47.316;18.908;2024-03-23T03:59:45;59.67;;;26.65;;
70707;SDS011;58277;47.316;18.908;2024-03-23T04:02:07;57.03;;;25.85;;
70707;SDS011;58277;47.316;18.908;2024-03-23T04:04:28;59.42;;;26.77;;
70707;SDS011;58277;47.316;18.908;2024-03-23T04:06:50;57.40;;;25.43;;
70707;SDS011;58277;47.316;18.908;2024-03-23T04:09:20;54.07;;;24.50;;
70707;SDS011;58277;47.316;18.908;2024-03-23T04:11:42;56.83;;;25.90;;
70707;SDS011;58277;47.316;18.908;2024-03-23T04:14:03;54.15;;;24.75;;
70707;SDS011;58277;47.316;18.908;2024-03-23T04:16:28;58.80;;;25.13;;
70707;SDS011;58277;47.316;18.908;2024-03-23T04:18:51;58.22;;;25.55;;
70707;SDS011;58277;47.316;18.908;2024-03-23T04:21:13;57.33;;;24.50;;
70707;SDS011;58277;47.316;18.908;2024-03-23T04:23:34;55.08;;;24.95;;
70707;SDS011;58277;47.316;18.908;2024-03-23T04:26:01;57.28;;;25.98;;
70707;SDS011;58277;47.316;18.908;2024-03-23T04:28:24;64.70;;;27.08;;
70707;SDS011;58277;47.316;18.908;2024-03-23T04:30:46;62.65;;;26.27;;
70707;SDS011;58277;47.316;18.908;2024-03-23T04:33:08;58.13;;;25.93;;
70707;SDS011;58277;47.316;18.908;2024-03-23T04:35:29;57.50;;;25.58;;
70707;SDS011;58277;47.316;18.908;2024-03-23T04:37:54;55.22;;;26.10;;
70707;SDS011;58277;47.316;18.908;2024-03-23T04:40:19;63.70;;;27.20;;
70707;SDS011;58277;47.316;18.908;2024-03-23T04:42:41;60.58;;;26.80;;
70707;SDS011;58277;47.316;18.908;2024-03-23T04:45:04;55.20;;;25.43;;
70707;SDS011;58277;47.316;18.908;2024-03-23T04:47:27;60.00;;;26.58;;
70707;SDS011;58277;47.316;18.908;2024-03-23T04:49:50;55.35;;;25.63;;
70707;SDS011;58277;47.316;18.908;2024-03-23T04:52:12;59.10;;;25.23;;
70707;SDS011;58277;47.316;18.908;2024-03-23T04:54:34;57.45;;;25.30;;
70707;SDS011;58277;47.316;18.908;2024-03-23T04:56:56;59.10;;;25.30;;
70707;SDS011;58277;47.316;18.908;2024-03-23T04:59:18;57.47;;;24.95;;
70707;SDS011;58277;47.316;18.908;2024-03-23T05:01:39;58.45;;;25.27;;
70707;SDS011;58277;47.316;18.908;2024-03-23T05:04:03;59.25;;;25.42;;
70707;SDS011;58277;47.316;18.908;2024-03-23T05:06:26;54.67;;;25.83;;
70707;SDS011;58277;47.316;18.908;2024-03-23T05:08:48;56.60;;;24.50;;
70707;SDS011;58277;47.316;18.908;2024-03-23T05:11:10;57.72;;;25.38;;
70707;SDS011;58277;47.316;18.908;2024-03-23T05:13:32;57.92;;;25.77;;
70707;SDS011;58277;47.316;18.908;2024-03-23T05:15:54;52.80;;;24.70;;
70707;SDS011;58277;47.316;18.908;2024-03-23T05:18:16;56.67;;;25.05;;
70707;SDS011;58277;47.316;18.908;2024-03-23T05:20:39;56.20;;;24.77;;
70707;SDS011;58277;47.316;18.908;2024-03-23T05:23:00;51.95;;;23.33;;
70707;SDS011;58277;47.316;18.908;2024-03-23T05:25:22;52.60;;;24.05;;
70707;SDS011;58277;47.316;18.908;2024-03-23T05:27:44;51.75;;;23.02;;
70707;SDS011;58277;47.316;18.908;2024-03-23T05:30:05;53.97;;;23.63;;
70707;SDS011;58277;47.316;18.908;2024-03-23T05:32:28;51.53;;;22.73;;
70707;SDS011;58277;47.316;18.908;2024-03-23T05:34:50;51.00;;;23.90;;
70707;SDS011;58277;47.316;18.908;2024-03-23T05:37:16;56.30;;;24.65;;
70707;SDS011;58277;47.316;18.908;2024-03-23T05:39:38;52.53;;;24.83;;
70707;SDS011;58277;47.316;18.908;2024-03-23T05:42:00;54.67;;;25.38;;
70707;SDS011;58277;47.316;18.908;2024-03-23T05:44:22;56.13;;;24.07;;
70707;SDS011;58277;47.316;18.908;2024-03-23T05:46:44;53.70;;;24.45;;
70707;SDS011;58277;47.316;18.908;2024-03-23T05:49:10;50.03;;;23.75;;
70707;SDS011;58277;47.316;18.908;2024-03-23T05:51:31;53.10;;;24.25;;
70707;SDS011;58277;47.316;18.908;2024-03-23T05:53:53;49.50;;;23.85;;
70707;SDS011;58277;47.316;18.908;2024-03-23T05:56:15;48.27;;;23.07;;
70707;SDS011;58277;47.316;18.908;2024-03-23T05:58:41;51.50;;;23.40;;
70707;SDS011;58277;47.316;18.908;2024-03-23T06:01:02;48.45;;;23.92;;
70707;SDS011;58277;47.316;18.908;2024-03-23T06:03:25;48.90;;;22.38;;
70707;SDS011;58277;47.316;18.908;2024-03-23T06:05:46;46.13;;;21.92;;
70707;SDS011;58277;47.316;18.908;2024-03-23T06:08:08;48.33;;;22.67;;
70707;SDS011;58277;47.316;18.908;2024-03-23T06:10:31;47.90;;;23.45;;
70707;SDS011;58277;47.316;18.908;2024-03-23T06:12:55;49.75;;;23.92;;
70707;SDS011;58277;47.316;18.908;2024-03-23T06:15:17;50.28;;;23.08;;
70707;SDS011;58277;47.316;18.908;2024-03-23T06:17:43;47.15;;;22.92;;
70707;SDS011;58277;47.316;18.908;2024-03-23T06:20:05;49.37;;;22.97;;
70707;SDS011;58277;47.316;18.908;2024-03-23T06:22:27;51.83;;;23.25;;
70707;SDS011;58277;47.316;18.908;2024-03-23T06:24:49;50.85;;;23.85;;
70707;SDS011;58277;47.316;18.908;2024-03-23T06:27:10;53.42;;;24.67;;
70707;SDS011;58277;47.316;18.908;2024-03-23T06:29:32;48.05;;;23.10;;
70707;SDS011;58277;47.316;18.908;2024-03-23T06:31:54;50.53;;;24.00;;
70707;SDS011;58277;47.316;18.908;2024-03-23T06:34:16;47.17;;;21.67;;
70707;SDS011;58277;47.316;18.908;2024-03-23T06:36:38;43.03;;;21.30;;
70707;SDS011;58277;47.316;18.908;2024-03-23T06:38:59;41.10;;;20.88;;
70707;SDS011;58277;47.316;18.908;2024-03-23T06:41:21;42.42;;;20.80;;
70707;SDS011;58277;47.316;18.908;2024-03-23T06:43:43;41.07;;;20.50;;
70707;SDS011;58277;47.316;18.908;2024-03-23T06:46:04;39.60;;;19.50;;
70707;SDS011;58277;47.316;18.908;2024-03-23T06:48:26;36.60;;;19.73;;
70707;SDS011;58277;47.316;18.908;2024-03-23T06:50:48;39.72;;;19.88;;
70707;SDS011;58277;47.316;18.908;2024-03-23T06:53:10;41.30;;;20.48;;
70707;SDS011;58277;47.316;18.908;2024-03-23T06:55:31;38.90;;;20.00;;
70707;SDS011;58277;47.316;18.908;2024-03-23T06:57:53;42.13;;;20.83;;
70707;SDS011;58277;47.316;18.908;2024-03-23T07:00:15;42.33;;;20.48;;
70707;SDS011;58277;47.316;18.908;2024-03-23T07:02:37;39.30;;;19.38;;
70707;SDS011;58277;47.316;18.908;2024-03-23T07:04:59;41.28;;;20.30;;
70707;SDS011;58277;47.316;18.908;2024-03-23T07:07:22;38.10;;;20.00;;
70707;SDS011;58277;47.316;18.908;2024-03-23T07:09:43;39.00;;;18.73;;
70707;SDS011;58277;47.316;18.908;2024-03-23T07:12:05;37.90;;;19.38;;
70707;SDS011;58277;47.316;18.908;2024-03-23T07:14:27;35.65;;;18.17;;
70707;SDS011;58277;47.316;18.908;2024-03-23T07:16:51;42.85;;;19.27;;
70707;SDS011;58277;47.316;18.908;2024-03-23T07:19:12;36.37;;;18.27;;
70707;SDS011;58277;47.316;18.908;2024-03-23T07:21:36;34.95;;;17.77;;
70707;SDS011;58277;47.316;18.908;2024-03-23T07:23:58;34.50;;;18.75;;
70707;SDS011;58277;47.316;18.908;2024-03-23T07:26:19;36.97;;;18.38;;
70707;SDS011;58277;47.316;18.908;2024-03-23T07:28:42;35.05;;;18.23;;
70707;SDS011;58277;47.316;18.908;2024-03-23T07:31:13;35.63;;;18.97;;
70707;SDS011;58277;47.316;18.908;2024-03-23T07:33:36;34.38;;;18.17;;
70707;SDS011;58277;47.316;18.908;2024-03-23T07:35:59;36.30;;;18.73;;
70707;SDS011;58277;47.316;18.908;2024-03-23T07:38:21;36.13;;;18.58;;
70707;SDS011;58277;47.316;18.908;2024-03-23T07:40:43;35.97;;;18.50;;
70707;SDS011;58277;47.316;18.908;2024-03-23T07:43:05;35.07;;;18.40;;
70707;SDS011;58277;47.316;18.908;2024-03-23T07:45:26;32.80;;;18.02;;
70707;SDS011;58277;47.316;18.908;2024-03-23T07:47:48;31.42;;;17.23;;
70707;SDS011;58277;47.316;18.908;2024-03-23T07:50:10;33.15;;;17.45;;
70707;SDS011;58277;47.316;18.908;2024-03-23T07:52:31;29.52;;;16.98;;
70707;SDS011;58277;47.316;18.908;2024-03-23T07:54:53;30.93;;;16.67;;
70707;SDS011;58277;47.316;18.908;2024-03-23T07:57:14;27.60;;;15.02;;
70707;SDS011;58277;47.316;18.908;2024-03-23T07:59:36;28.30;;;16.02;;
70707;SDS011;58277;47.316;18.908;2024-03-23T08:01:58;21.52;;;12.45;;
70707;SDS011;58277;47.316;18.908;2024-03-23T08:04:20;29.08;;;14.50;;
70707;SDS011;58277;47.316;18.908;2024-03-23T08:06:41;21.73;;;13.10;;
70707;SDS011;58277;47.316;18.908;2024-03-23T08:09:03;20.38;;;11.50;;
70707;SDS011;58277;47.316;18.908;2024-03-23T08:11:25;21.83;;;12.13;;
70707;SDS011;58277;47.316;18.908;2024-03-23T08:13:48;22.30;;;12.50;;
70707;SDS011;58277;47.316;18.908;2024-03-23T08:16:09;19.33;;;11.18;;
70707;SDS011;58277;47.316;18.908;2024-03-23T08:18:31;19.47;;;11.33;;
70707;SDS011;58277;47.316;18.908;2024-03-23T08:20:57;17.70;;;11.15;;
70707;SDS011;58277;47.316;18.908;2024-03-23T08:23:19;16.35;;;10.50;;
70707;SDS011;58277;47.316;18.908;2024-03-23T08:25:41;18.38;;;10.20;;
70707;SDS011;58277;47.316;18.908;2024-03-23T08:28:02;16.27;;;10.40;;
70707;SDS011;58277;47.316;18.908;2024-03-23T08:30:25;16.60;;;9.90;;
70707;SDS011;58277;47.316;18.908;2024-03-23T08:32:47;15.25;;;9.57;;
70707;SDS011;58277;47.316;18.908;2024-03-23T08:35:09;17.65;;;10.13;;
70707;SDS011;58277;47.316;18.908;2024-03-23T08:37:30;16.83;;;9.48;;
70707;SDS011;58277;47.316;18.908;2024-03-23T08:39:52;16.40;;;10.30;;
70707;SDS011;58277;47.316;18.908;2024-03-23T08:42:17;15.13;;;9.83;;
70707;SDS011;58277;47.316;18.908;2024-03-23T08:44:39;15.15;;;9.45;;
70707;SDS011;58277;47.316;18.908;2024-03-23T08:47:01;16.63;;;9.88;;
70707;SDS011;58277;47.316;18.908;2024-03-23T08:49:23;12.93;;;8.80;;
70707;SDS011;58277;47.316;18.908;2024-03-23T08:51:44;16.45;;;9.15;;
70707;SDS011;58277;47.316;18.908;2024-03-23T08:54:06;16.00;;;9.20;;
70707;SDS011;58277;47.316;18.908;2024-03-23T08:56:28;16.88;;;8.70;;
70707;SDS011;58277;47.316;18.908;2024-03-23T08:58:50;15.52;;;9.30;;
70707;SDS011;58277;47.316;18.908;2024-03-23T09:01:12;13.43;;;8.40;;
70707;SDS011;58277;47.316;18.908;2024-03-23T09:03:34;15.35;;;8.02;;
70707;SDS011;58277;47.316;18.908;2024-03-23T09:05:57;11.10;;;7.30;;
70707;SDS011;58277;47.316;18.908;2024-03-23T09:08:19;11.65;;;7.55;;
70707;SDS011;58277;47.316;18.908;2024-03-23T09:10:41;10.02;;;6.45;;
70707;SDS011;58277;47.316;18.908;2024-03-23T09:13:04;10.38;;;6.63;;
70707;SDS011;58277;47.316;18.908;2024-03-23T09:15:26;11.93;;;6.82;;
70707;SDS011;58277;47.316;18.908;2024-03-23T09:17:47;10.80;;;6.07;;
70707;SDS011;58277;47.316;18.908;2024-03-23T09:20:09;11.10;;;6.63;;
70707;SDS011;58277;47.316;18.908;2024-03-23T09:22:31;14.02;;;6.90;;
70707;SDS011;58277;47.316;18.908;2024-03-23T09:24:53;10.60;;;6.78;;
70707;SDS011;58277;47.316;18.908;2024-03-23T09:27:14;12.30;;;6.85;;
70707;SDS011;58277;47.316;18.908;2024-03-23T09:29:36;14.03;;;6.80;;
70707;SDS011;58277;47.316;18.908;2024-03-23T09:31:58;10.60;;;6.82;;
70707;SDS011;58277;47.316;18.908;2024-03-23T09:34:19;14.38;;;6.95;;
70707;SDS011;58277;47.316;18.908;2024-03-23T09:36:41;15.80;;;7.90;;
70707;SDS011;58277;47.316;18.908;2024-03-23T09:39:03;11.85;;;7.25;;
70707;SDS011;58277;47.316;18.908;2024-03-23T09:41:26;11.43;;;7.13;;
70707;SDS011;58277;47.316;18.908;2024-03-23T09:43:48;11.68;;;7.30;;
70707;SDS011;58277;47.316;18.908;2024-03-23T09:46:14;11.45;;;7.07;;
70707;SDS011;58277;47.316;18.908;2024-03-23T09:48:36;11.90;;;6.70;;
70707;SDS011;58277;47.316;18.908;2024-03-23T09:50:57;10.02;;;6.47;;
70707;SDS011;58277;47.316;18.908;2024-03-23T09:53:19;12.70;;;6.83;;
70707;SDS011;58277;47.316;18.908;2024-03-23T09:55:41;12.20;;;6.68;;
70707;SDS011;58277;47.316;18.908;2024-03-23T09:58:05;11.32;;;6.97;;
70707;SDS011;58277;47.316;18.908;2024-03-23T10:00:28;10.65;;;6.75;;
70707;SDS011;58277;47.316;18.908;2024-03-23T10:02:49;10.93;;;6.90;;
70707;SDS011;58277;47.316;18.908;2024-03-23T10:05:21;9.93;;;6.13;;
70707;SDS011;58277;47.316;18.908;2024-03-23T10:07:44;11.48;;;6.50;;
70707;SDS011;58277;47.316;18.908;2024-03-23T10:10:10;11.10;;;6.25;;
70707;SDS011;58277;47.316;18.908;2024-03-23T10:12:33;9.32;;;6.28;;
70707;SDS011;58277;47.316;18.908;2024-03-23T10:14:54;11.85;;;6.55;;
70707;SDS011;58277;47.316;18.908;2024-03-23T10:17:20;10.13;;;6.30;;
70707;SDS011;58277;47.316;18.908;2024-03-23T10:19:46;11.90;;;6.00;;
70707;SDS011;58277;47.316;18.908;2024-03-23T10:22:09;11.38;;;6.40;;
70707;SDS011;58277;47.316;18.908;2024-03-23T10:24:31;11.00;;;6.38;;
70707;SDS011;58277;47.316;18.908;2024-03-23T10:26:56;10.50;;;6.20;;
70707;SDS011;58277;47.316;18.908;2024-03-23T10:29:18;9.73;;;6.40;;
70707;SDS011;58277;47.316;18.908;2024-03-23T10:31:40;8.10;;;5.45;;
70707;SDS011;58277;47.316;18.908;2024-03-23T10:34:03;9.60;;;5.80;;
70707;SDS011;58277;47.316;18.908;2024-03-23T10:36:25;6.93;;;4.68;;
70707;SDS011;58277;47.316;18.908;2024-03-23T10:38:47;9.63;;;4.60;;
70707;SDS011;58277;47.316;18.908;2024-03-23T10:41:12;9.60;;;5.40;;
70707;SDS011;58277;47.316;18.908;2024-03-23T10:43:34;6.63;;;4.40;;
70707;SDS011;58277;47.316;18.908;2024-03-23T10:45:58;5.95;;;4.07;;
70707;SDS011;58277;47.316;18.908;2024-03-23T10:48:20;7.00;;;4.15;;
70707;SDS011;58277;47.316;18.908;2024-03-23T10:50:42;8.30;;;4.22;;
70707;SDS011;58277;47.316;18.908;2024-03-23T10:53:04;5.87;;;3.90;;
70707;SDS011;58277;47.316;18.908;2024-03-23T10:55:26;6.05;;;3.97;;
70707;SDS011;58277;47.316;18.908;2024-03-23T10:57:50;5.85;;;4.15;;
70707;SDS011;58277;47.316;18.908;2024-03-23T11:00:14;7.72;;;4.50;;
70707;SDS011;58277;47.316;18.908;2024-03-23T11:02:38;7.85;;;4.47;;
70707;SDS011;58277;47.316;18.908;2024-03-23T11:04:59;7.77;;;4.13;;
70707;SDS011;58277;47.316;18.908;2024-03-23T11:09:46;7.40;;;4.25;;
70707;SDS011;58277;47.316;18.908;2024-03-23T11:14:44;8.50;;;4.28;;
70707;SDS011;58277;47.316;18.908;2024-03-23T11:17:10;6.60;;;3.70;;
70707;SDS011;58277;47.316;18.908;2024-03-23T11:19:38;6.13;;;3.63;;
70707;SDS011;58277;47.316;18.908;2024-03-23T11:22:00;7.60;;;4.28;;
70707;SDS011;58277;47.316;18.908;2024-03-23T11:24:22;6.95;;;3.90;;
70707;SDS011;58277;47.316;18.908;2024-03-23T11:26:44;6.75;;;3.80;;
70707;SDS011;58277;47.316;18.908;2024-03-23T11:29:13;6.23;;;3.70;;
70707;SDS011;58277;47.316;18.908;2024-03-23T11:31:36;5.78;;;3.58;;
70707;SDS011;58277;47.316;18.908;2024-03-23T11:34:17;6.07;;;3.40;;
70707;SDS011;58277;47.316;18.908;2024-03-23T11:36:40;6.93;;;3.38;;
70707;SDS011;58277;47.316;18.908;2024-03-23T11:39:11;8.00;;;3.92;;
70707;SDS011;58277;47.316;18.908;2024-03-23T11:41:44;6.17;;;3.47;;
70707;SDS011;58277;47.316;18.908;2024-03-23T11:44:21;5.72;;;3.58;;
70707;SDS011;58277;47.316;18.908;2024-03-23T11:46:44;7.35;;;3.50;;
70707;SDS011;58277;47.316;18.908;2024-03-23T11:49:06;6.07;;;3.25;;
70707;SDS011;58277;47.316;18.908;2024-03-23T11:51:50;5.90;;;3.33;;
70707;SDS011;58277;47.316;18.908;2024-03-23T11:54:15;5.83;;;3.40;;
70707;SDS011;58277;47.316;18.908;2024-03-23T11:56:38;5.32;;;3.13;;
70707;SDS011;58277;47.316;18.908;2024-03-23T11:59:00;4.68;;;3.10;;
70707;SDS011;58277;47.316;18.908;2024-03-23T12:01:21;4.68;;;3.10;;
70707;SDS011;58277;47.316;18.908;2024-03-23T12:03:43;6.18;;;3.15;;
70707;SDS011;58277;47.316;18.908;2024-03-23T12:06:05;6.57;;;3.57;;
70707;SDS011;58277;47.316;18.908;2024-03-23T12:08:30;6.15;;;2.97;;
70707;SDS011;58277;47.316;18.908;2024-03-23T12:10:52;5.82;;;3.10;;
70707;SDS011;58277;47.316;18.908;2024-03-23T12:13:25;4.63;;;2.92;;
70707;SDS011;58277;47.316;18.908;2024-03-23T12:15:49;5.57;;;3.25;;
70707;SDS011;58277;47.316;18.908;2024-03-23T12:18:12;4.50;;;2.83;;
70707;SDS011;58277;47.316;18.908;2024-03-23T12:20:35;4.50;;;2.90;;
70707;SDS011;58277;47.316;18.908;2024-03-23T12:23:09;5.10;;;2.92;;
70707;SDS011;58277;47.316;18.908;2024-03-23T12:25:36;6.43;;;3.00;;
70707;SDS011;58277;47.316;18.908;2024-03-23T12:27:59;4.03;;;2.85;;
70707;SDS011;58277;47.316;18.908;2024-03-23T12:30:21;5.40;;;3.20;;
70707;SDS011;58277;47.316;18.908;2024-03-23T12:32:43;6.10;;;3.40;;
70707;SDS011;58277;47.316;18.908;2024-03-23T12:35:05;4.45;;;2.97;;
70707;SDS011;58277;47.316;18.908;2024-03-23T12:37:27;5.50;;;3.10;;
70707;SDS011;58277;47.316;18.908;2024-03-23T12:39:49;4.78;;;2.90;;
70707;SDS011;58277;47.316;18.908;2024-03-23T12:42:10;5.43;;;3.00;;
70707;SDS011;58277;47.316;18.908;2024-03-23T12:44:33;6.03;;;3.00;;
70707;SDS011;58277;47.316;18.908;2024-03-23T12:46:55;4.30;;;2.88;;
70707;SDS011;58277;47.316;18.908;2024-03-23T12:49:16;5.53;;;3.10;;
70707;SDS011;58277;47.316;18.908;2024-03-23T12:51:38;4.60;;;2.75;;
70707;SDS011;58277;47.316;18.908;2024-03-23T12:54:00;4.00;;;2.53;;
70707;SDS011;58277;47.316;18.908;2024-03-23T12:56:22;4.20;;;2.80;;
70707;SDS011;58277;47.316;18.908;2024-03-23T12:58:43;5.85;;;3.33;;
70707;SDS011;58277;47.316;18.908;2024-03-23T13:01:05;4.47;;;2.90;;
70707;SDS011;58277;47.316;18.908;2024-03-23T13:03:27;4.07;;;2.80;;
70707;SDS011;58277;47.316;18.908;2024-03-23T13:05:52;6.60;;;3.07;;
70707;SDS011;58277;47.316;18.908;2024-03-23T13:08:14;4.78;;;2.90;;
70707;SDS011;58277;47.316;18.908;2024-03-23T13:10:36;4.25;;;2.80;;
70707;SDS011;58277;47.316;18.908;2024-03-23T13:12:57;4.97;;;2.80;;
70707;SDS011;58277;47.316;18.908;2024-03-23T13:15:19;6.43;;;3.08;;
70707;SDS011;58277;47.316;18.908;2024-03-23T13:17:41;4.30;;;2.60;;
70707;SDS011;58277;47.316;18.908;2024-03-23T13:20:03;4.32;;;2.55;;
70707;SDS011;58277;47.316;18.908;2024-03-23T13:22:26;4.07;;;2.58;;
70707;SDS011;58277;47.316;18.908;2024-03-23T13:24:48;5.32;;;2.78;;
70707;SDS011;58277;47.316;18.908;2024-03-23T13:27:09;4.13;;;2.70;;
70707;SDS011;58277;47.316;18.908;2024-03-23T13:29:32;3.80;;;2.60;;
70707;SDS011;58277;47.316;18.908;2024-03-23T13:31:53;3.88;;;2.60;;
70707;SDS011;58277;47.316;18.908;2024-03-23T13:34:15;4.20;;;2.90;;
70707;SDS011;58277;47.316;18.908;2024-03-23T13:36:37;5.00;;;2.60;;
70707;SDS011;58277;47.316;18.908;2024-03-23T13:38:59;4.60;;;2.45;;
70707;SDS011;58277;47.316;18.908;2024-03-23T13:41:21;4.50;;;2.50;;
70707;SDS011;58277;47.316;18.908;2024-03-23T13:43:42;4.18;;;2.65;;
70707;SDS011;58277;47.316;18.908;2024-03-23T13:46:04;4.38;;;2.72;;
70707;SDS011;58277;47.316;18.908;2024-03-23T13:48:27;5.15;;;2.63;;
70707;SDS011;58277;47.316;18.908;2024-03-23T13:50:57;3.83;;;2.70;;
70707;SDS011;58277;47.316;18.908;2024-03-23T13:53:22;4.20;;;2.77;;
70707;SDS011;58277;47.316;18.908;2024-03-23T13:55:48;3.38;;;2.40;;
70707;SDS011;58277;47.316;18.908;2024-03-23T13:58:09;5.00;;;2.60;;
70707;SDS011;58277;47.316;18.908;2024-03-23T14:00:33;3.85;;;2.33;;
70707;SDS011;58277;47.316;18.908;2024-03-23T14:02:56;4.25;;;2.60;;
70707;SDS011;58277;47.316;18.908;2024-03-23T14:05:17;4.00;;;2.53;;
70707;SDS011;58277;47.316;18.908;2024-03-23T14:07:39;5.45;;;2.42;;
70707;SDS011;58277;47.316;18.908;2024-03-23T14:10:04;4.85;;;2.75;;
70707;SDS011;58277;47.316;18.908;2024-03-23T14:12:28;5.15;;;2.55;;
70707;SDS011;58277;47.316;18.908;2024-03-23T14:14:49;5.15;;;2.63;;
70707;SDS011;58277;47.316;18.908;2024-03-23T14:17:11;4.03;;;2.63;;
70707;SDS011;58277;47.316;18.908;2024-03-23T14:19:35;4.35;;;2.80;;
70707;SDS011;58277;47.316;18.908;2024-03-23T14:21:57;4.68;;;2.63;;
70707;SDS011;58277;47.316;18.908;2024-03-23T14:24:19;5.32;;;2.60;;
70707;SDS011;58277;47.316;18.908;2024-03-23T14:26:42;4.68;;;2.70;;
70707;SDS011;58277;47.316;18.908;2024-03-23T14:29:03;4.40;;;2.73;;
70707;SDS011;58277;47.316;18.908;2024-03-23T14:31:25;5.13;;;2.88;;
70707;SDS011;58277;47.316;18.908;2024-03-23T14:33:47;4.32;;;2.80;;
70707;SDS011;58277;47.316;18.908;2024-03-23T14:36:09;3.70;;;2.38;;
70707;SDS011;58277;47.316;18.908;2024-03-23T14:38:32;3.75;;;2.70;;
70707;SDS011;58277;47.316;18.908;2024-03-23T14:40:57;5.80;;;2.87;;
70707;SDS011;58277;47.316;18.908;2024-03-23T14:43:20;4.45;;;2.65;;
70707;SDS011;58277;47.316;18.908;2024-03-23T14:45:49;4.57;;;3.08;;
70707;SDS011;58277;47.316;18.908;2024-03-23T14:48:31;4.63;;;2.80;;